sensor_id;sensor_type;location;lat;lon;timestamp;temperature;humidity
3705;DHT22;1868;48.918;9.438;2022-10-16T00:01:39;16.10;97.40
3705;DHT22;1868;48.918;9.438;2022-10-16T00:04:08;16.10;97.40
3705;DHT22;1868;48.918;9.438;2022-10-16T00:06:37;16.10;97.40
3705;DHT22;1868;48.918;9.438;2022-10-16T00:09:06;16.10;97.40
3705;DHT22;1868;48.918;9.438;2022-10-16T00:11:36;16.10;97.40
3705;DHT22;1868;48.918;9.438;2022-10-16T00:14:09;16.10;97.40
3705;DHT22;1868;48.918;9.438;2022-10-16T00:16:41;16.10;97.40
3705;DHT22;1868;48.918;9.438;2022-10-16T00:19:10;16.10;97.40
3705;DHT22;1868;48.918;9.438;2022-10-16T00:21:39;16.10;97.40
3705;DHT22;1868;48.918;9.438;2022-10-16T00:24:09;16.10;97.40
3705;DHT22;1868;48.918;9.438;2022-10-16T00:26:38;16.10;97.40
3705;DHT22;1868;48.918;9.438;2022-10-16T00:29:07;16.20;97.40
3705;DHT22;1868;48.918;9.438;2022-10-16T00:31:35;16.20;97.40
3705;DHT22;1868;48.918;9.438;2022-10-16T00:34:05;16.20;97.40
3705;DHT22;1868;48.918;9.438;2022-10-16T00:36:33;16.20;97.40
3705;DHT22;1868;48.918;9.438;2022-10-16T00:39:01;16.20;97.40
3705;DHT22;1868;48.918;9.438;2022-10-16T00:41:31;16.20;97.40
3705;DHT22;1868;48.918;9.438;2022-10-16T00:44:01;16.20;97.40
3705;DHT22;1868;48.918;9.438;2022-10-16T00:46:35;16.20;97.40
3705;DHT22;1868;48.918;9.438;2022-10-16T00:49:08;16.10;97.40
3705;DHT22;1868;48.918;9.438;2022-10-16T00:51:39;16.10;97.40
3705;DHT22;1868;48.918;9.438;2022-10-16T00:54:11;16.10;97.40
3705;DHT22;1868;48.918;9.438;2022-10-16T00:56:43;16.10;97.40
3705;DHT22;1868;48.918;9.438;2022-10-16T00:59:16;16.00;97.40
3705;DHT22;1868;48.918;9.438;2022-10-16T01:01:47;16.00;97.40
3705;DHT22;1868;48.918;9.438;2022-10-16T01:04:16;16.00;97.40
3705;DHT22;1868;48.918;9.438;2022-10-16T01:06:51;16.00;97.40
3705;DHT22;1868;48.918;9.438;2022-10-16T01:09:28;16.00;97.40
3705;DHT22;1868;48.918;9.438;2022-10-16T01:12:06;16.10;97.40
3705;DHT22;1868;48.918;9.438;2022-10-16T01:14:42;16.10;97.40
3705;DHT22;1868;48.918;9.438;2022-10-16T01:17:17;16.00;97.40
3705;DHT22;1868;48.918;9.438;2022-10-16T01:20:09;16.00;97.40
3705;DHT22;1868;48.918;9.438;2022-10-16T01:22:44;16.00;97.40
3705;DHT22;1868;48.918;9.438;2022-10-16T01:25:24;15.90;97.40
3705;DHT22;1868;48.918;9.438;2022-10-16T01:27:59;15.90;97.40
3705;DHT22;1868;48.918;9.438;2022-10-16T01:30:31;16.00;97.40
3705;DHT22;1868;48.918;9.438;2022-10-16T01:33:03;15.90;97.40
3705;DHT22;1868;48.918;9.438;2022-10-16T01:35:38;16.00;97.40
3705;DHT22;1868;48.918;9.438;2022-10-16T01:38:14;16.00;97.40
3705;DHT22;1868;48.918;9.438;2022-10-16T01:40:47;16.00;97.40
3705;DHT22;1868;48.918;9.438;2022-10-16T01:43:22;16.00;97.40
3705;DHT22;1868;48.918;9.438;2022-10-16T01:45:52;16.00;97.40
3705;DHT22;1868;48.918;9.438;2022-10-16T01:48:21;16.10;97.40
3705;DHT22;1868;48.918;9.438;2022-10-16T01:50:58;16.10;97.40
3705;DHT22;1868;48.918;9.438;2022-10-16T01:53:29;16.10;97.40
3705;DHT22;1868;48.918;9.438;2022-10-16T01:55:59;16.10;97.40
3705;DHT22;1868;48.918;9.438;2022-10-16T01:58:30;16.00;97.40
3705;DHT22;1868;48.918;9.438;2022-10-16T02:01:03;16.00;97.40
3705;DHT22;1868;48.918;9.438;2022-10-16T02:03:33;16.00;97.40
3705;DHT22;1868;48.918;9.438;2022-10-16T02:06:02;16.00;97.40
3705;DHT22;1868;48.918;9.438;2022-10-16T02:08:30;16.00;97.40
3705;DHT22;1868;48.918;9.438;2022-10-16T02:11:00;15.90;97.40
3705;DHT22;1868;48.918;9.438;2022-10-16T02:13:34;15.90;97.40
3705;DHT22;1868;48.918;9.438;2022-10-16T02:16:06;15.90;97.40
3705;DHT22;1868;48.918;9.438;2022-10-16T02:18:35;15.90;97.40
3705;DHT22;1868;48.918;9.438;2022-10-16T02:21:06;15.90;97.40
3705;DHT22;1868;48.918;9.438;2022-10-16T02:23:46;15.90;97.40
3705;DHT22;1868;48.918;9.438;2022-10-16T02:26:22;16.00;97.40
3705;DHT22;1868;48.918;9.438;2022-10-16T02:29:00;16.00;97.40
3705;DHT22;1868;48.918;9.438;2022-10-16T02:31:41;16.00;97.40
3705;DHT22;1868;48.918;9.438;2022-10-16T02:34:12;16.10;97.40
3705;DHT22;1868;48.918;9.438;2022-10-16T02:36:42;16.10;97.40
3705;DHT22;1868;48.918;9.438;2022-10-16T02:39:11;16.10;97.40
3705;DHT22;1868;48.918;9.438;2022-10-16T02:41:40;16.10;97.40
3705;DHT22;1868;48.918;9.438;2022-10-16T02:44:09;16.20;97.40
3705;DHT22;1868;48.918;9.438;2022-10-16T02:46:37;16.20;97.40
3705;DHT22;1868;48.918;9.438;2022-10-16T02:49:06;16.20;97.40
3705;DHT22;1868;48.918;9.438;2022-10-16T02:51:34;16.20;97.40
3705;DHT22;1868;48.918;9.438;2022-10-16T02:54:02;16.20;97.40
3705;DHT22;1868;48.918;9.438;2022-10-16T02:56:30;16.20;97.40
3705;DHT22;1868;48.918;9.438;2022-10-16T02:58:58;16.20;97.40
3705;DHT22;1868;48.918;9.438;2022-10-16T03:01:28;16.20;97.40
3705;DHT22;1868;48.918;9.438;2022-10-16T03:03:56;16.20;97.40
3705;DHT22;1868;48.918;9.438;2022-10-16T03:06:24;16.20;97.40
3705;DHT22;1868;48.918;9.438;2022-10-16T03:08:53;16.20;97.40
3705;DHT22;1868;48.918;9.438;2022-10-16T03:11:21;16.20;97.40
3705;DHT22;1868;48.918;9.438;2022-10-16T03:13:49;16.30;97.40
3705;DHT22;1868;48.918;9.438;2022-10-16T03:16:17;16.30;97.40
3705;DHT22;1868;48.918;9.438;2022-10-16T03:18:49;16.30;97.40
3705;DHT22;1868;48.918;9.438;2022-10-16T03:21:17;16.30;97.40
3705;DHT22;1868;48.918;9.438;2022-10-16T03:23:45;16.30;97.40
3705;DHT22;1868;48.918;9.438;2022-10-16T03:26:13;16.20;97.40
3705;DHT22;1868;48.918;9.438;2022-10-16T03:28:41;16.20;97.40
3705;DHT22;1868;48.918;9.438;2022-10-16T03:31:10;16.10;97.40
3705;DHT22;1868;48.918;9.438;2022-10-16T03:33:38;16.10;97.40
3705;DHT22;1868;48.918;9.438;2022-10-16T03:36:07;16.00;97.40
3705;DHT22;1868;48.918;9.438;2022-10-16T03:38:36;16.00;97.40
3705;DHT22;1868;48.918;9.438;2022-10-16T03:41:04;16.00;97.40
3705;DHT22;1868;48.918;9.438;2022-10-16T03:43:34;15.90;97.40
3705;DHT22;1868;48.918;9.438;2022-10-16T03:46:02;15.90;97.40
3705;DHT22;1868;48.918;9.438;2022-10-16T03:48:30;15.80;97.40
3705;DHT22;1868;48.918;9.438;2022-10-16T03:50:59;15.80;97.40
3705;DHT22;1868;48.918;9.438;2022-10-16T03:53:28;15.70;97.40
3705;DHT22;1868;48.918;9.438;2022-10-16T03:55:56;15.70;97.40
3705;DHT22;1868;48.918;9.438;2022-10-16T03:58:24;15.60;97.40
3705;DHT22;1868;48.918;9.438;2022-10-16T04:00:52;15.60;97.40
3705;DHT22;1868;48.918;9.438;2022-10-16T04:03:21;15.60;97.40
3705;DHT22;1868;48.918;9.438;2022-10-16T04:05:49;15.50;97.40
3705;DHT22;1868;48.918;9.438;2022-10-16T04:08:18;15.50;97.40
3705;DHT22;1868;48.918;9.438;2022-10-16T04:10:47;15.50;97.40
3705;DHT22;1868;48.918;9.438;2022-10-16T04:13:16;15.40;97.40
3705;DHT22;1868;48.918;9.438;2022-10-16T04:15:45;15.40;97.40
3705;DHT22;1868;48.918;9.438;2022-10-16T04:18:13;15.40;97.40
3705;DHT22;1868;48.918;9.438;2022-10-16T04:20:41;15.40;97.40
3705;DHT22;1868;48.918;9.438;2022-10-16T04:23:09;15.40;97.40
3705;DHT22;1868;48.918;9.438;2022-10-16T04:25:38;15.30;97.40
3705;DHT22;1868;48.918;9.438;2022-10-16T04:28:07;15.30;97.40
3705;DHT22;1868;48.918;9.438;2022-10-16T04:30:38;15.30;97.40
3705;DHT22;1868;48.918;9.438;2022-10-16T04:33:07;15.30;97.40
3705;DHT22;1868;48.918;9.438;2022-10-16T04:35:36;15.20;97.40
3705;DHT22;1868;48.918;9.438;2022-10-16T04:38:04;15.20;97.40
3705;DHT22;1868;48.918;9.438;2022-10-16T04:40:32;15.20;97.40
3705;DHT22;1868;48.918;9.438;2022-10-16T04:43:03;15.20;97.40
3705;DHT22;1868;48.918;9.438;2022-10-16T04:45:32;15.10;97.40
3705;DHT22;1868;48.918;9.438;2022-10-16T04:48:00;15.10;97.40
3705;DHT22;1868;48.918;9.438;2022-10-16T04:50:29;15.10;97.40
3705;DHT22;1868;48.918;9.438;2022-10-16T04:53:04;15.10;97.40
3705;DHT22;1868;48.918;9.438;2022-10-16T04:55:33;15.00;97.40
3705;DHT22;1868;48.918;9.438;2022-10-16T04:58:01;15.00;97.40
3705;DHT22;1868;48.918;9.438;2022-10-16T05:00:29;15.00;97.40
3705;DHT22;1868;48.918;9.438;2022-10-16T05:02:59;15.00;97.40
3705;DHT22;1868;48.918;9.438;2022-10-16T05:05:27;15.00;97.40
3705;DHT22;1868;48.918;9.438;2022-10-16T05:07:56;15.00;97.40
3705;DHT22;1868;48.918;9.438;2022-10-16T05:10:24;15.00;97.40
3705;DHT22;1868;48.918;9.438;2022-10-16T05:12:52;15.00;97.40
3705;DHT22;1868;48.918;9.438;2022-10-16T05:15:20;15.00;97.40
3705;DHT22;1868;48.918;9.438;2022-10-16T05:17:53;15.00;97.40
3705;DHT22;1868;48.918;9.438;2022-10-16T05:20:22;15.00;97.40
3705;DHT22;1868;48.918;9.438;2022-10-16T05:22:51;14.90;97.40
3705;DHT22;1868;48.918;9.438;2022-10-16T05:25:19;14.90;97.40
3705;DHT22;1868;48.918;9.438;2022-10-16T05:27:47;14.90;97.40
3705;DHT22;1868;48.918;9.438;2022-10-16T05:30:16;15.00;97.40
3705;DHT22;1868;48.918;9.438;2022-10-16T05:32:47;15.00;97.40
3705;DHT22;1868;48.918;9.438;2022-10-16T05:35:16;15.00;97.40
3705;DHT22;1868;48.918;9.438;2022-10-16T05:37:46;15.00;97.40
3705;DHT22;1868;48.918;9.438;2022-10-16T05:40:15;15.00;97.40
3705;DHT22;1868;48.918;9.438;2022-10-16T05:42:43;15.00;97.40
3705;DHT22;1868;48.918;9.438;2022-10-16T05:45:12;15.00;97.40
3705;DHT22;1868;48.918;9.438;2022-10-16T05:47:40;15.00;97.40
3705;DHT22;1868;48.918;9.438;2022-10-16T05:50:09;15.00;97.40
3705;DHT22;1868;48.918;9.438;2022-10-16T05:52:37;15.00;97.40
3705;DHT22;1868;48.918;9.438;2022-10-16T05:55:07;14.90;97.40
3705;DHT22;1868;48.918;9.438;2022-10-16T05:57:35;14.90;97.40
3705;DHT22;1868;48.918;9.438;2022-10-16T06:00:05;14.90;97.40
3705;DHT22;1868;48.918;9.438;2022-10-16T06:02:38;14.90;97.40
3705;DHT22;1868;48.918;9.438;2022-10-16T06:05:06;14.90;97.40
3705;DHT22;1868;48.918;9.438;2022-10-16T06:07:35;14.90;97.40
3705;DHT22;1868;48.918;9.438;2022-10-16T06:10:06;14.90;97.40
3705;DHT22;1868;48.918;9.438;2022-10-16T06:12:35;14.90;97.40
3705;DHT22;1868;48.918;9.438;2022-10-16T06:15:04;14.90;97.40
3705;DHT22;1868;48.918;9.438;2022-10-16T06:17:32;14.90;97.40
3705;DHT22;1868;48.918;9.438;2022-10-16T06:20:01;15.00;97.40
3705;DHT22;1868;48.918;9.438;2022-10-16T06:22:29;15.00;97.40
3705;DHT22;1868;48.918;9.438;2022-10-16T06:24:57;15.10;97.40
3705;DHT22;1868;48.918;9.438;2022-10-16T06:27:26;15.10;97.40
3705;DHT22;1868;48.918;9.438;2022-10-16T06:29:55;15.10;97.40
3705;DHT22;1868;48.918;9.438;2022-10-16T06:32:24;15.20;97.40
3705;DHT22;1868;48.918;9.438;2022-10-16T06:34:52;15.20;97.40
3705;DHT22;1868;48.918;9.438;2022-10-16T06:37:20;15.20;97.40
3705;DHT22;1868;48.918;9.438;2022-10-16T06:39:48;15.20;97.40
3705;DHT22;1868;48.918;9.438;2022-10-16T06:42:19;15.30;97.40
3705;DHT22;1868;48.918;9.438;2022-10-16T06:44:48;15.40;97.40
3705;DHT22;1868;48.918;9.438;2022-10-16T06:47:16;15.40;97.40
3705;DHT22;1868;48.918;9.438;2022-10-16T06:49:44;15.50;97.40
3705;DHT22;1868;48.918;9.438;2022-10-16T06:52:20;15.50;97.40
3705;DHT22;1868;48.918;9.438;2022-10-16T06:54:49;15.60;97.40
3705;DHT22;1868;48.918;9.438;2022-10-16T06:57:17;15.60;97.40
3705;DHT22;1868;48.918;9.438;2022-10-16T06:59:45;15.70;97.40
3705;DHT22;1868;48.918;9.438;2022-10-16T07:02:19;15.70;97.40
3705;DHT22;1868;48.918;9.438;2022-10-16T07:04:47;15.80;97.40
3705;DHT22;1868;48.918;9.438;2022-10-16T07:07:15;15.80;97.40
3705;DHT22;1868;48.918;9.438;2022-10-16T07:09:43;15.80;97.40
3705;DHT22;1868;48.918;9.438;2022-10-16T07:12:11;15.80;97.40
3705;DHT22;1868;48.918;9.438;2022-10-16T07:14:40;15.80;97.40
3705;DHT22;1868;48.918;9.438;2022-10-16T07:17:08;15.90;97.40
3705;DHT22;1868;48.918;9.438;2022-10-16T07:19:37;15.90;97.40
3705;DHT22;1868;48.918;9.438;2022-10-16T07:22:05;16.10;97.40
3705;DHT22;1868;48.918;9.438;2022-10-16T07:24:33;16.20;97.40
3705;DHT22;1868;48.918;9.438;2022-10-16T07:27:02;16.30;97.40
3705;DHT22;1868;48.918;9.438;2022-10-16T07:29:30;16.50;97.40
3705;DHT22;1868;48.918;9.438;2022-10-16T07:31:58;16.50;97.40
3705;DHT22;1868;48.918;9.438;2022-10-16T07:34:26;16.60;97.40
3705;DHT22;1868;48.918;9.438;2022-10-16T07:36:56;16.60;97.40
3705;DHT22;1868;48.918;9.438;2022-10-16T07:39:24;16.60;97.40
3705;DHT22;1868;48.918;9.438;2022-10-16T07:41:52;16.60;97.40
3705;DHT22;1868;48.918;9.438;2022-10-16T07:44:20;16.60;97.40
3705;DHT22;1868;48.918;9.438;2022-10-16T07:46:48;16.60;97.40
3705;DHT22;1868;48.918;9.438;2022-10-16T07:49:16;16.60;97.40
3705;DHT22;1868;48.918;9.438;2022-10-16T07:51:44;16.60;97.40
3705;DHT22;1868;48.918;9.438;2022-10-16T07:54:14;16.50;97.40
3705;DHT22;1868;48.918;9.438;2022-10-16T07:56:42;16.50;97.40
3705;DHT22;1868;48.918;9.438;2022-10-16T07:59:10;16.50;97.40
3705;DHT22;1868;48.918;9.438;2022-10-16T08:01:38;16.50;97.40
3705;DHT22;1868;48.918;9.438;2022-10-16T08:04:09;16.60;97.40
3705;DHT22;1868;48.918;9.438;2022-10-16T08:06:38;16.60;97.40
3705;DHT22;1868;48.918;9.438;2022-10-16T08:09:08;16.60;97.40
3705;DHT22;1868;48.918;9.438;2022-10-16T08:11:37;16.60;97.40
3705;DHT22;1868;48.918;9.438;2022-10-16T08:14:05;16.70;97.40
3705;DHT22;1868;48.918;9.438;2022-10-16T08:16:34;16.70;97.40
3705;DHT22;1868;48.918;9.438;2022-10-16T08:19:02;16.80;97.40
3705;DHT22;1868;48.918;9.438;2022-10-16T08:21:30;16.90;97.40
3705;DHT22;1868;48.918;9.438;2022-10-16T08:23:59;17.00;97.40
3705;DHT22;1868;48.918;9.438;2022-10-16T08:26:27;17.10;97.40
3705;DHT22;1868;48.918;9.438;2022-10-16T08:28:56;17.20;97.40
3705;DHT22;1868;48.918;9.438;2022-10-16T08:31:25;17.30;97.40
3705;DHT22;1868;48.918;9.438;2022-10-16T08:33:54;17.50;97.40
3705;DHT22;1868;48.918;9.438;2022-10-16T08:36:22;17.80;97.40
3705;DHT22;1868;48.918;9.438;2022-10-16T08:38:50;18.70;97.40
3705;DHT22;1868;48.918;9.438;2022-10-16T08:41:35;20.10;97.40
3705;DHT22;1868;48.918;9.438;2022-10-16T08:44:41;21.20;97.40
3705;DHT22;1868;48.918;9.438;2022-10-16T08:47:24;22.70;97.40
3705;DHT22;1868;48.918;9.438;2022-10-16T08:49:57;22.90;97.40
3705;DHT22;1868;48.918;9.438;2022-10-16T08:52:30;23.50;97.40
3705;DHT22;1868;48.918;9.438;2022-10-16T08:55:01;23.70;97.40
3705;DHT22;1868;48.918;9.438;2022-10-16T08:57:30;24.20;97.40
3705;DHT22;1868;48.918;9.438;2022-10-16T09:00:08;24.80;97.40
3705;DHT22;1868;48.918;9.438;2022-10-16T09:02:45;24.80;97.40
3705;DHT22;1868;48.918;9.438;2022-10-16T09:05:27;24.50;97.40
3705;DHT22;1868;48.918;9.438;2022-10-16T09:08:07;24.30;97.40
3705;DHT22;1868;48.918;9.438;2022-10-16T09:10:47;24.00;97.40
3705;DHT22;1868;48.918;9.438;2022-10-16T09:13:26;23.80;97.40
3705;DHT22;1868;48.918;9.438;2022-10-16T09:16:03;23.60;97.40
3705;DHT22;1868;48.918;9.438;2022-10-16T09:18:44;23.30;97.40
3705;DHT22;1868;48.918;9.438;2022-10-16T09:21:19;23.10;97.40
3705;DHT22;1868;48.918;9.438;2022-10-16T09:23:50;23.00;97.40
3705;DHT22;1868;48.918;9.438;2022-10-16T09:26:18;22.80;97.40
3705;DHT22;1868;48.918;9.438;2022-10-16T09:28:51;22.50;97.40
3705;DHT22;1868;48.918;9.438;2022-10-16T09:31:23;22.40;97.40
3705;DHT22;1868;48.918;9.438;2022-10-16T09:33:55;22.30;97.40
3705;DHT22;1868;48.918;9.438;2022-10-16T09:36:27;22.70;97.40
3705;DHT22;1868;48.918;9.438;2022-10-16T09:39:04;23.40;97.40
3705;DHT22;1868;48.918;9.438;2022-10-16T09:41:35;24.20;97.40
3705;DHT22;1868;48.918;9.438;2022-10-16T09:44:12;25.80;97.40
3705;DHT22;1868;48.918;9.438;2022-10-16T09:46:47;26.90;97.30
3705;DHT22;1868;48.918;9.438;2022-10-16T09:49:21;27.40;92.70
3705;DHT22;1868;48.918;9.438;2022-10-16T09:51:51;28.10;92.90
3705;DHT22;1868;48.918;9.438;2022-10-16T09:54:31;29.00;87.30
3705;DHT22;1868;48.918;9.438;2022-10-16T09:57:06;29.10;88.20
3705;DHT22;1868;48.918;9.438;2022-10-16T09:59:46;28.60;87.90
3705;DHT22;1868;48.918;9.438;2022-10-16T10:02:18;28.90;79.50
3705;DHT22;1868;48.918;9.438;2022-10-16T10:04:50;28.40;80.40
3705;DHT22;1868;48.918;9.438;2022-10-16T10:07:24;28.30;81.00
3705;DHT22;1868;48.918;9.438;2022-10-16T10:09:55;28.00;81.00
3705;DHT22;1868;48.918;9.438;2022-10-16T10:12:25;29.30;82.10
3705;DHT22;1868;48.918;9.438;2022-10-16T10:14:57;30.40;72.20
3705;DHT22;1868;48.918;9.438;2022-10-16T10:17:28;31.30;70.00
3705;DHT22;1868;48.918;9.438;2022-10-16T10:19:58;32.10;61.80
3705;DHT22;1868;48.918;9.438;2022-10-16T10:22:31;33.00;70.90
3705;DHT22;1868;48.918;9.438;2022-10-16T10:25:18;33.70;58.30
3705;DHT22;1868;48.918;9.438;2022-10-16T10:28:19;33.50;61.20
3705;DHT22;1868;48.918;9.438;2022-10-16T10:30:57;32.70;56.90
3705;DHT22;1868;48.918;9.438;2022-10-16T10:33:35;32.70;64.40
3705;DHT22;1868;48.918;9.438;2022-10-16T10:36:16;33.20;60.50
3705;DHT22;1868;48.918;9.438;2022-10-16T10:38:58;33.30;58.90
3705;DHT22;1868;48.918;9.438;2022-10-16T10:44:57;32.40;56.40
3705;DHT22;1868;48.918;9.438;2022-10-16T10:47:47;32.70;60.10
3705;DHT22;1868;48.918;9.438;2022-10-16T10:50:26;33.50;53.10
3705;DHT22;1868;48.918;9.438;2022-10-16T10:53:04;32.60;56.10
3705;DHT22;1868;48.918;9.438;2022-10-16T10:55:42;31.80;60.50
3705;DHT22;1868;48.918;9.438;2022-10-16T11:01:32;30.20;66.10
3705;DHT22;1868;48.918;9.438;2022-10-16T11:04:30;30.00;69.80
3705;DHT22;1868;48.918;9.438;2022-10-16T11:07:09;29.90;67.20
3705;DHT22;1868;48.918;9.438;2022-10-16T11:09:45;30.80;67.00
3705;DHT22;1868;48.918;9.438;2022-10-16T11:12:18;31.50;59.00
3705;DHT22;1868;48.918;9.438;2022-10-16T11:14:50;32.10;55.80
3705;DHT22;1868;48.918;9.438;2022-10-16T11:17:27;33.10;57.20
3705;DHT22;1868;48.918;9.438;2022-10-16T11:20:02;33.80;52.80
3705;DHT22;1868;48.918;9.438;2022-10-16T11:22:37;34.20;49.70
3705;DHT22;1868;48.918;9.438;2022-10-16T11:25:13;35.00;50.80
3705;DHT22;1868;48.918;9.438;2022-10-16T11:27:47;35.80;48.40
3705;DHT22;1868;48.918;9.438;2022-10-16T11:30:20;36.30;48.50
3705;DHT22;1868;48.918;9.438;2022-10-16T11:33:02;36.30;45.90
3705;DHT22;1868;48.918;9.438;2022-10-16T11:35:39;36.20;47.60
3705;DHT22;1868;48.918;9.438;2022-10-16T11:38:17;35.90;45.30
3705;DHT22;1868;48.918;9.438;2022-10-16T11:40:53;35.80;46.40
3705;DHT22;1868;48.918;9.438;2022-10-16T11:43:27;35.70;47.90
3705;DHT22;1868;48.918;9.438;2022-10-16T11:46:02;35.20;48.20
3705;DHT22;1868;48.918;9.438;2022-10-16T11:48:38;35.30;47.80
3705;DHT22;1868;48.918;9.438;2022-10-16T11:51:14;35.90;49.10
3705;DHT22;1868;48.918;9.438;2022-10-16T11:53:53;36.10;44.30
3705;DHT22;1868;48.918;9.438;2022-10-16T11:56:24;36.10;46.20
3705;DHT22;1868;48.918;9.438;2022-10-16T11:58:56;36.50;47.60
3705;DHT22;1868;48.918;9.438;2022-10-16T12:01:31;36.70;49.10
3705;DHT22;1868;48.918;9.438;2022-10-16T12:04:16;36.20;43.80
3705;DHT22;1868;48.918;9.438;2022-10-16T12:06:52;35.80;48.40
3705;DHT22;1868;48.918;9.438;2022-10-16T12:09:26;35.40;47.50
3705;DHT22;1868;48.918;9.438;2022-10-16T12:11:55;35.30;47.80
3705;DHT22;1868;48.918;9.438;2022-10-16T12:14:38;35.30;49.30
3705;DHT22;1868;48.918;9.438;2022-10-16T12:17:35;34.50;48.50
3705;DHT22;1868;48.918;9.438;2022-10-16T12:20:23;33.10;50.80
3705;DHT22;1868;48.918;9.438;2022-10-16T12:22:54;32.60;53.90
3705;DHT22;1868;48.918;9.438;2022-10-16T12:25:27;33.10;53.40
3705;DHT22;1868;48.918;9.438;2022-10-16T12:28:00;33.30;52.00
3705;DHT22;1868;48.918;9.438;2022-10-16T12:30:31;33.80;50.50
3705;DHT22;1868;48.918;9.438;2022-10-16T12:33:03;34.10;50.30
3705;DHT22;1868;48.918;9.438;2022-10-16T12:35:34;34.10;49.30
3705;DHT22;1868;48.918;9.438;2022-10-16T12:38:16;34.20;49.40
3705;DHT22;1868;48.918;9.438;2022-10-16T12:40:56;34.70;51.40
3705;DHT22;1868;48.918;9.438;2022-10-16T12:43:39;35.40;49.90
3705;DHT22;1868;48.918;9.438;2022-10-16T12:49:20;36.30;45.80
3705;DHT22;1868;48.918;9.438;2022-10-16T12:51:51;36.60;46.80
3705;DHT22;1868;48.918;9.438;2022-10-16T12:54:22;37.10;42.90
3705;DHT22;1868;48.918;9.438;2022-10-16T12:57:07;37.20;44.70
3705;DHT22;1868;48.918;9.438;2022-10-16T12:59:45;37.20;44.00
3705;DHT22;1868;48.918;9.438;2022-10-16T13:02:39;37.40;44.10
3705;DHT22;1868;48.918;9.438;2022-10-16T13:05:31;37.30;43.60
3705;DHT22;1868;48.918;9.438;2022-10-16T13:08:25;37.60;43.20
3705;DHT22;1868;48.918;9.438;2022-10-16T13:11:08;37.60;40.90
3705;DHT22;1868;48.918;9.438;2022-10-16T13:13:57;37.60;41.80
3705;DHT22;1868;48.918;9.438;2022-10-16T13:16:40;36.10;42.00
3705;DHT22;1868;48.918;9.438;2022-10-16T13:19:19;34.80;47.30
3705;DHT22;1868;48.918;9.438;2022-10-16T13:21:59;34.10;49.90
3705;DHT22;1868;48.918;9.438;2022-10-16T13:24:42;33.40;52.60
3705;DHT22;1868;48.918;9.438;2022-10-16T13:27:26;32.70;53.20
3705;DHT22;1868;48.918;9.438;2022-10-16T13:30:12;31.90;55.10
3705;DHT22;1868;48.918;9.438;2022-10-16T13:32:45;31.20;55.50
3705;DHT22;1868;48.918;9.438;2022-10-16T13:35:24;30.80;58.00
3705;DHT22;1868;48.918;9.438;2022-10-16T13:38:04;30.50;60.50
3705;DHT22;1868;48.918;9.438;2022-10-16T13:40:51;30.20;60.90
3705;DHT22;1868;48.918;9.438;2022-10-16T13:43:25;29.90;61.80
3705;DHT22;1868;48.918;9.438;2022-10-16T13:45:59;29.60;60.30
3705;DHT22;1868;48.918;9.438;2022-10-16T13:48:29;29.20;64.00
3705;DHT22;1868;48.918;9.438;2022-10-16T13:51:04;29.00;65.30
3705;DHT22;1868;48.918;9.438;2022-10-16T13:53:34;28.80;67.70
3705;DHT22;1868;48.918;9.438;2022-10-16T13:56:06;28.50;74.50
3705;DHT22;1868;48.918;9.438;2022-10-16T13:58:37;28.30;73.20
3705;DHT22;1868;48.918;9.438;2022-10-16T14:01:17;28.30;73.30
3705;DHT22;1868;48.918;9.438;2022-10-16T14:03:47;28.60;71.70
3705;DHT22;1868;48.918;9.438;2022-10-16T14:06:17;28.40;71.80
3705;DHT22;1868;48.918;9.438;2022-10-16T14:08:53;28.40;73.20
3705;DHT22;1868;48.918;9.438;2022-10-16T14:11:24;29.10;69.10
3705;DHT22;1868;48.918;9.438;2022-10-16T14:13:54;29.50;69.10
3705;DHT22;1868;48.918;9.438;2022-10-16T14:16:27;29.50;67.60
3705;DHT22;1868;48.918;9.438;2022-10-16T14:18:58;29.20;66.10
3705;DHT22;1868;48.918;9.438;2022-10-16T14:21:28;29.10;68.30
3705;DHT22;1868;48.918;9.438;2022-10-16T14:23:57;29.10;71.10
3705;DHT22;1868;48.918;9.438;2022-10-16T14:26:27;28.60;72.40
3705;DHT22;1868;48.918;9.438;2022-10-16T14:29:09;27.80;74.30
3705;DHT22;1868;48.918;9.438;2022-10-16T14:31:41;27.30;73.70
3705;DHT22;1868;48.918;9.438;2022-10-16T14:34:27;27.00;76.90
3705;DHT22;1868;48.918;9.438;2022-10-16T14:37:01;26.80;79.90
3705;DHT22;1868;48.918;9.438;2022-10-16T14:39:39;26.40;82.80
3705;DHT22;1868;48.918;9.438;2022-10-16T14:42:14;26.20;84.30
3705;DHT22;1868;48.918;9.438;2022-10-16T14:44:46;26.10;85.10
3705;DHT22;1868;48.918;9.438;2022-10-16T14:47:18;26.00;84.10
3705;DHT22;1868;48.918;9.438;2022-10-16T14:49:51;25.90;84.70
3705;DHT22;1868;48.918;9.438;2022-10-16T14:52:21;25.80;86.60
3705;DHT22;1868;48.918;9.438;2022-10-16T14:54:50;25.70;89.20
3705;DHT22;1868;48.918;9.438;2022-10-16T14:57:23;25.60;88.80
3705;DHT22;1868;48.918;9.438;2022-10-16T14:59:56;25.40;91.70
3705;DHT22;1868;48.918;9.438;2022-10-16T15:02:28;25.30;91.90
3705;DHT22;1868;48.918;9.438;2022-10-16T15:04:58;25.20;91.70
3705;DHT22;1868;48.918;9.438;2022-10-16T15:07:35;25.50;91.30
3705;DHT22;1868;48.918;9.438;2022-10-16T15:10:04;25.80;90.70
3705;DHT22;1868;48.918;9.438;2022-10-16T15:12:32;25.80;91.80
3705;DHT22;1868;48.918;9.438;2022-10-16T15:15:01;25.70;90.80
3705;DHT22;1868;48.918;9.438;2022-10-16T15:17:30;25.60;90.20
3705;DHT22;1868;48.918;9.438;2022-10-16T15:19:58;25.50;90.80
3705;DHT22;1868;48.918;9.438;2022-10-16T15:22:27;25.40;90.30
3705;DHT22;1868;48.918;9.438;2022-10-16T15:24:55;25.50;91.50
3705;DHT22;1868;48.918;9.438;2022-10-16T15:27:23;25.70;91.40
3705;DHT22;1868;48.918;9.438;2022-10-16T15:29:52;25.50;93.00
3705;DHT22;1868;48.918;9.438;2022-10-16T15:32:20;25.20;92.40
3705;DHT22;1868;48.918;9.438;2022-10-16T15:34:49;25.00;93.10
3705;DHT22;1868;48.918;9.438;2022-10-16T15:37:18;24.90;93.50
3705;DHT22;1868;48.918;9.438;2022-10-16T15:39:46;24.70;95.20
3705;DHT22;1868;48.918;9.438;2022-10-16T15:42:14;24.40;94.10
3705;DHT22;1868;48.918;9.438;2022-10-16T15:44:42;24.30;94.90
3705;DHT22;1868;48.918;9.438;2022-10-16T15:47:10;24.10;95.40
3705;DHT22;1868;48.918;9.438;2022-10-16T15:49:39;24.00;95.90
3705;DHT22;1868;48.918;9.438;2022-10-16T15:52:09;23.90;96.60
3705;DHT22;1868;48.918;9.438;2022-10-16T15:54:37;23.70;97.40
3705;DHT22;1868;48.918;9.438;2022-10-16T15:57:05;23.60;97.40
3705;DHT22;1868;48.918;9.438;2022-10-16T15:59:33;23.50;97.40
3705;DHT22;1868;48.918;9.438;2022-10-16T16:02:01;23.40;97.40
3705;DHT22;1868;48.918;9.438;2022-10-16T16:04:31;23.20;97.40
3705;DHT22;1868;48.918;9.438;2022-10-16T16:07:15;23.10;97.40
3705;DHT22;1868;48.918;9.438;2022-10-16T16:09:44;22.90;97.40
3705;DHT22;1868;48.918;9.438;2022-10-16T16:12:12;22.80;97.40
3705;DHT22;1868;48.918;9.438;2022-10-16T16:14:40;22.70;97.40
3705;DHT22;1868;48.918;9.438;2022-10-16T16:17:09;22.60;97.40
3705;DHT22;1868;48.918;9.438;2022-10-16T16:19:37;22.50;97.40
3705;DHT22;1868;48.918;9.438;2022-10-16T16:22:05;22.30;97.40
3705;DHT22;1868;48.918;9.438;2022-10-16T16:24:38;22.20;97.40
3705;DHT22;1868;48.918;9.438;2022-10-16T16:27:06;22.10;97.40
3705;DHT22;1868;48.918;9.438;2022-10-16T16:29:34;22.00;97.40
3705;DHT22;1868;48.918;9.438;2022-10-16T16:32:03;21.90;97.40
3705;DHT22;1868;48.918;9.438;2022-10-16T16:34:31;21.70;97.40
3705;DHT22;1868;48.918;9.438;2022-10-16T16:36:59;21.60;97.40
3705;DHT22;1868;48.918;9.438;2022-10-16T16:39:28;21.40;97.40
3705;DHT22;1868;48.918;9.438;2022-10-16T16:41:57;21.30;97.40
3705;DHT22;1868;48.918;9.438;2022-10-16T16:44:26;21.20;97.40